createdAt,value
2022-12-01T00:01:17.093Z,991.05
2022-12-01T00:03:43.875Z,945.75
2022-12-01T00:06:19.588Z,757.55
2022-12-01T00:09:06.445Z,398.35
2022-12-01T00:11:34.472Z,528.00
2022-12-01T00:14:01.425Z,750.83
2022-12-01T00:16:28.466Z,725.90
2022-12-01T00:18:56.781Z,685.03
2022-12-01T00:21:25.971Z,666.03
2022-12-01T00:23:55.253Z,604.50
2022-12-01T00:26:23.158Z,468.05
2022-12-01T00:28:55.089Z,544.03
2022-12-01T00:31:22.223Z,533.97
2022-12-01T00:33:49.615Z,445.58
2022-12-01T00:36:17.916Z,496.20
2022-12-01T00:38:45.102Z,641.60
2022-12-01T00:41:12.131Z,766.50
2022-12-01T00:43:39.908Z,752.90
2022-12-01T00:46:07.284Z,745.97
2022-12-01T00:48:34.196Z,745.13
2022-12-01T00:51:00.980Z,842.47
2022-12-01T00:53:29.311Z,833.90
2022-12-01T00:55:56.071Z,814.58
2022-12-01T00:58:24.107Z,857.45
2022-12-01T01:00:59.026Z,915.93
2022-12-01T01:03:26.807Z,771.38
2022-12-01T01:05:53.628Z,781.78
2022-12-01T01:08:22.605Z,801.55
2022-12-01T01:10:51.092Z,865.47
2022-12-01T01:13:18.883Z,786.40
2022-12-01T01:15:56.110Z,800.90
2022-12-01T01:18:22.891Z,934.65
2022-12-01T01:20:56.846Z,890.50
2022-12-01T01:23:23.635Z,893.30
2022-12-01T01:25:50.417Z,922.80
2022-12-01T01:28:17.531Z,930.87
2022-12-01T01:30:46.402Z,965.92
2022-12-01T01:33:13.236Z,977.30
2022-12-01T01:35:40.057Z,974.92
2022-12-01T01:38:07.760Z,987.78
2022-12-01T01:40:34.637Z,985.78
2022-12-01T01:43:01.357Z,984.35
2022-12-01T01:45:29.725Z,989.17
2022-12-01T01:47:59.245Z,999.90
2022-12-01T01:50:28.423Z,995.67
2022-12-01T01:53:03.101Z,997.25
2022-12-01T01:55:33.681Z,999.90
2022-12-01T01:58:02.522Z,999.90
2022-12-01T02:00:29.302Z,995.85
2022-12-01T02:03:00.113Z,990.97
2022-12-01T02:05:30.364Z,995.08
2022-12-01T02:07:59.316Z,992.60
2022-12-01T02:10:51.402Z,986.75
2022-12-01T02:13:37.945Z,993.10
2022-12-01T02:16:31.077Z,994.90
2022-12-01T02:19:28.811Z,999.22
2022-12-01T02:22:12.249Z,996.85
2022-12-01T02:25:08.119Z,994.92
2022-12-01T02:28:04.936Z,996.58
2022-12-01T02:30:45.890Z,991.42
2022-12-01T02:33:21.545Z,991.00
2022-12-01T02:35:53.924Z,997.65
2022-12-01T02:38:39.062Z,998.03
2022-12-01T02:41:13.102Z,991.08
2022-12-01T02:43:45.331Z,999.63
2022-12-01T02:46:13.787Z,999.58
2022-12-01T02:48:43.723Z,998.40
2022-12-01T02:51:16.198Z,999.90
2022-12-01T02:53:43.483Z,999.90
2022-12-01T02:56:12.904Z,999.90
2022-12-01T02:58:40.126Z,999.90
2022-12-01T03:01:31.075Z,999.90
2022-12-01T03:04:09.996Z,999.90
2022-12-01T03:06:56.392Z,999.90
2022-12-01T03:09:41.086Z,999.90
2022-12-01T03:12:27.526Z,999.90
2022-12-01T03:15:28.743Z,999.90
2022-12-01T03:18:10.271Z,999.90
2022-12-01T03:21:08.227Z,999.90
2022-12-01T03:23:39.598Z,999.90
2022-12-01T03:26:10.507Z,999.90
2022-12-01T03:28:42.763Z,999.90
2022-12-01T03:31:15.781Z,999.90
2022-12-01T03:33:49.327Z,999.90
2022-12-01T03:36:27.012Z,999.90
2022-12-01T03:39:00.122Z,999.90
2022-12-01T03:41:33.551Z,999.90
2022-12-01T03:44:11.215Z,999.90
2022-12-01T03:47:15.971Z,999.90
2022-12-01T03:49:43.987Z,992.60
2022-12-01T03:52:40.455Z,993.80
2022-12-01T03:55:17.782Z,994.97
2022-12-01T03:58:10.515Z,998.83
2022-12-01T04:00:37.617Z,999.90
2022-12-01T04:03:06.235Z,993.08
2022-12-01T04:05:35.022Z,997.55
2022-12-01T04:08:01.984Z,996.50
2022-12-01T04:10:28.889Z,994.08
2022-12-01T04:12:59.622Z,995.60
2022-12-01T04:15:27.267Z,999.65
2022-12-01T04:17:54.514Z,995.50
2022-12-01T04:20:23.332Z,994.33
2022-12-01T04:22:50.230Z,998.38
2022-12-01T04:25:17.089Z,994.77
2022-12-01T04:27:44.022Z,999.60
2022-12-01T04:30:11.355Z,995.42
2022-12-01T04:32:40.052Z,999.78
2022-12-01T04:35:08.816Z,997.45
2022-12-01T04:37:35.785Z,996.15
2022-12-01T04:40:02.969Z,990.22
2022-12-01T04:42:30.088Z,991.38
2022-12-01T04:44:57.297Z,993.40
2022-12-01T04:47:24.171Z,991.38
2022-12-01T04:49:51.274Z,988.25
2022-12-01T04:52:18.288Z,997.45
2022-12-01T04:54:45.030Z,989.13
2022-12-01T04:57:11.898Z,994.05
2022-12-01T04:59:38.593Z,993.05
2022-12-01T05:02:06.512Z,992.35
2022-12-01T05:04:34.109Z,999.77
2022-12-01T05:07:00.965Z,987.30
2022-12-01T05:09:27.632Z,989.83
2022-12-01T05:11:54.430Z,989.60
2022-12-01T05:14:21.216Z,983.83
2022-12-01T05:16:48.972Z,982.55
2022-12-01T05:19:34.607Z,986.78
2022-12-01T05:22:01.868Z,988.03
2022-12-01T05:24:28.727Z,989.25
2022-12-01T05:26:55.498Z,986.60
2022-12-01T05:29:22.215Z,997.28
2022-12-01T05:31:49.161Z,999.90
2022-12-01T05:34:16.337Z,999.90
2022-12-01T05:36:43.217Z,997.97
2022-12-01T05:39:10.014Z,992.80
2022-12-01T05:41:36.760Z,986.58
2022-12-01T05:44:03.695Z,985.92
2022-12-01T05:46:31.869Z,987.00
2022-12-01T05:48:58.591Z,978.30
2022-12-01T05:51:26.395Z,974.47
2022-12-01T05:53:54.230Z,975.13
2022-12-01T05:56:21.751Z,972.20
2022-12-01T05:58:48.614Z,975.97
2022-12-01T06:01:16.595Z,974.90
2022-12-01T06:03:43.490Z,976.47
2022-12-01T06:06:10.494Z,981.30
2022-12-01T06:08:38.281Z,975.25
2022-12-01T06:11:06.212Z,975.88
2022-12-01T06:13:32.996Z,972.38
2022-12-01T06:16:02.558Z,971.47
2022-12-01T06:18:34.716Z,977.70
2022-12-01T06:21:02.022Z,974.05
2022-12-01T06:23:30.615Z,980.42
2022-12-01T06:25:58.312Z,984.22
2022-12-01T06:28:25.195Z,986.65
2022-12-01T06:30:54.500Z,984.17
2022-12-01T06:33:24.799Z,982.65
2022-12-01T06:36:03.448Z,982.53
2022-12-01T06:38:32.198Z,987.05
2022-12-01T06:40:59.245Z,986.85
2022-12-01T06:43:26.110Z,984.67
2022-12-01T06:45:57.812Z,977.45
2022-12-01T06:48:27.881Z,981.33
2022-12-01T06:50:57.630Z,979.13
2022-12-01T06:53:24.741Z,979.88
2022-12-01T06:55:51.453Z,977.25
2022-12-01T06:58:18.778Z,976.78
2022-12-01T07:00:51.789Z,977.00
2022-12-01T07:03:19.006Z,972.65
2022-12-01T07:05:54.278Z,967.65
2022-12-01T07:08:21.096Z,970.20
2022-12-01T07:11:15.272Z,964.78
2022-12-01T07:13:45.314Z,965.00
2022-12-01T07:16:12.539Z,961.72
2022-12-01T07:18:40.418Z,968.67
2022-12-01T07:21:14.704Z,965.53
2022-12-01T07:23:42.105Z,965.85
2022-12-01T07:26:14.410Z,968.92
2022-12-01T07:28:41.754Z,969.33
2022-12-01T07:31:11.612Z,963.47
2022-12-01T07:33:39.102Z,971.95
2022-12-01T07:36:07.169Z,970.08
2022-12-01T07:38:35.949Z,968.65
2022-12-01T07:41:15.267Z,972.75
2022-12-01T07:43:42.801Z,970.28
2022-12-01T07:46:18.761Z,975.58
2022-12-01T07:48:50.050Z,964.30
2022-12-01T07:51:17.315Z,961.10
2022-12-01T07:53:46.243Z,964.13
2022-12-01T07:56:13.341Z,961.35
2022-12-01T07:58:40.277Z,957.35
2022-12-01T08:01:09.585Z,956.90
2022-12-01T08:03:36.876Z,965.45
2022-12-01T08:06:05.077Z,963.75
2022-12-01T08:08:34.128Z,957.97
2022-12-01T08:11:03.215Z,961.90
2022-12-01T08:13:30.657Z,956.80
2022-12-01T08:15:58.472Z,956.17
2022-12-01T08:18:26.260Z,961.22
2022-12-01T08:20:58.195Z,959.25
2022-12-01T08:23:24.973Z,965.10
2022-12-01T08:25:52.574Z,961.10
2022-12-01T08:28:19.960Z,959.78
2022-12-01T08:30:47.250Z,956.58
2022-12-01T08:33:14.120Z,955.60
2022-12-01T08:35:40.832Z,956.13
2022-12-01T08:38:09.806Z,962.97
2022-12-01T08:40:36.862Z,961.35
2022-12-01T08:43:05.024Z,961.70
2022-12-01T08:45:31.891Z,962.78
2022-12-01T08:47:59.803Z,963.53
2022-12-01T08:50:27.883Z,965.25
2022-12-01T08:52:55.093Z,956.90
2022-12-01T08:55:22.225Z,958.55
2022-12-01T08:57:49.127Z,964.05
2022-12-01T09:00:16.521Z,954.63
2022-12-01T09:02:44.447Z,966.00
2022-12-01T09:05:11.464Z,964.53
2022-12-01T09:07:38.261Z,964.92
2022-12-01T09:10:07.601Z,953.08
2022-12-01T09:12:35.392Z,954.93
2022-12-01T09:15:02.295Z,959.65
2022-12-01T09:17:29.111Z,956.05
2022-12-01T09:19:55.925Z,954.83
2022-12-01T09:22:22.729Z,970.08
2022-12-01T09:24:49.400Z,785.53
2022-12-01T09:27:16.066Z,957.43
2022-12-01T09:29:42.890Z,953.70
2022-12-01T09:32:09.646Z,958.43
2022-12-01T09:34:36.346Z,957.53
2022-12-01T09:37:03.231Z,960.80
2022-12-01T09:39:30.111Z,960.45
2022-12-01T09:42:12.921Z,956.58
2022-12-01T09:44:51.276Z,961.00
2022-12-01T09:47:26.313Z,956.22
2022-12-01T09:50:01.932Z,957.65
2022-12-01T09:52:33.902Z,945.83
2022-12-01T09:55:01.303Z,951.05
2022-12-01T09:57:36.671Z,946.10
2022-12-01T10:00:15.223Z,946.42
2022-12-01T10:03:05.785Z,961.30
2022-12-01T10:09:07.457Z,956.83
2022-12-01T10:11:42.698Z,956.20
2022-12-01T10:14:19.726Z,958.17
2022-12-01T10:17:21.101Z,958.50
2022-12-01T10:20:13.842Z,958.57
2022-12-01T10:23:11.447Z,956.42
2022-12-01T10:25:50.885Z,946.88
2022-12-01T10:28:26.629Z,949.83
2022-12-01T10:31:01.732Z,948.60
2022-12-01T10:33:50.972Z,955.08
2022-12-01T10:36:17.754Z,953.80
2022-12-01T10:38:44.631Z,950.05
2022-12-01T10:41:14.334Z,949.90
2022-12-01T10:43:45.840Z,954.10
2022-12-01T10:46:27.229Z,953.40
2022-12-01T10:48:59.710Z,956.75
2022-12-01T10:51:27.960Z,951.17
2022-12-01T10:54:11.521Z,950.05
2022-12-01T10:56:40.906Z,947.90
2022-12-01T10:59:26.043Z,944.55
2022-12-01T11:01:54.886Z,945.75
2022-12-01T11:04:45.598Z,951.38
2022-12-01T11:07:22.826Z,947.40
2022-12-01T11:10:07.725Z,946.05
2022-12-01T11:12:34.819Z,945.08
2022-12-01T11:15:02.066Z,941.28
2022-12-01T11:17:34.702Z,939.27
2022-12-01T11:20:32.296Z,943.72
2022-12-01T11:23:24.439Z,942.35
2022-12-01T11:26:06.794Z,944.67
2022-12-01T11:28:35.715Z,952.85
2022-12-01T11:31:06.435Z,970.70
2022-12-01T11:33:43.740Z,967.03
2022-12-01T11:36:16.002Z,957.72
2022-12-01T11:38:43.078Z,961.83
2022-12-01T11:41:29.741Z,958.85
2022-12-01T11:44:01.810Z,957.17
2022-12-01T11:46:32.848Z,947.40
2022-12-01T11:49:00.373Z,954.50
2022-12-01T11:51:37.253Z,947.67
2022-12-01T11:54:15.289Z,951.58
2022-12-01T11:56:45.150Z,951.67
2022-12-01T11:59:16.569Z,956.47
2022-12-01T12:02:11.335Z,952.97
2022-12-01T12:04:50.337Z,956.73
2022-12-01T12:07:55.131Z,967.38
2022-12-01T12:10:47.324Z,967.70
2022-12-01T12:13:45.786Z,960.55
2022-12-01T12:16:32.080Z,955.00
2022-12-01T12:19:25.400Z,947.33
2022-12-01T12:22:26.663Z,974.97
2022-12-01T12:25:18.564Z,948.08
2022-12-01T12:28:08.411Z,956.63
2022-12-01T12:30:51.977Z,955.70
2022-12-01T12:33:36.490Z,951.23
2022-12-01T12:36:23.015Z,948.53
2022-12-01T12:39:01.854Z,947.38
2022-12-01T12:41:36.009Z,948.47
2022-12-01T12:44:31.054Z,950.10
2022-12-01T12:47:07.579Z,952.60
2022-12-01T12:49:53.318Z,952.83
2022-12-01T12:52:28.479Z,951.33
2022-12-01T12:55:03.854Z,955.85
2022-12-01T12:57:36.493Z,954.38
2022-12-01T13:00:07.979Z,954.67
2022-12-01T13:02:40.751Z,959.47
2022-12-01T13:05:18.319Z,959.13
2022-12-01T13:08:01.028Z,960.00
2022-12-01T13:10:42.656Z,959.85
2022-12-01T13:13:33.737Z,952.45
2022-12-01T13:16:03.271Z,957.75
2022-12-01T13:19:08.259Z,954.95
2022-12-01T13:21:44.558Z,965.03
2022-12-01T13:24:24.017Z,959.53
2022-12-01T13:27:06.182Z,956.08
2022-12-01T13:29:41.018Z,961.13
2022-12-01T13:32:30.485Z,955.20
2022-12-01T13:34:57.946Z,961.05
2022-12-01T13:37:36.712Z,983.20
2022-12-01T13:40:10.542Z,981.38
2022-12-01T13:42:39.833Z,972.72
2022-12-01T13:45:25.043Z,970.72
2022-12-01T13:47:55.370Z,967.42
2022-12-01T13:50:42.950Z,968.22
2022-12-01T13:53:20.252Z,969.57
2022-12-01T13:56:26.407Z,965.50
2022-12-01T13:58:54.676Z,973.97
2022-12-01T14:01:21.993Z,970.25
2022-12-01T14:04:03.163Z,970.78
2022-12-01T14:06:50.994Z,970.33
2022-12-01T14:09:38.880Z,970.25
2022-12-01T14:12:23.932Z,968.78
2022-12-01T14:15:23.559Z,966.50
2022-12-01T14:18:04.094Z,961.83
2022-12-01T14:20:34.082Z,961.55
2022-12-01T14:23:24.041Z,958.45
2022-12-01T14:26:11.596Z,967.40
2022-12-01T14:29:03.194Z,968.42
2022-12-01T14:31:33.024Z,966.72
2022-12-01T14:34:18.866Z,967.65
2022-12-01T14:37:09.636Z,966.00
2022-12-01T14:39:43.193Z,967.90
2022-12-01T14:42:44.788Z,959.03
2022-12-01T14:45:17.161Z,961.33
2022-12-01T14:47:56.122Z,969.63
2022-12-01T14:50:46.225Z,970.67
2022-12-01T14:53:27.699Z,965.10
2022-12-01T14:56:01.738Z,962.25
2022-12-01T14:58:31.076Z,966.67
2022-12-01T15:01:09.087Z,962.27
2022-12-01T15:03:37.859Z,962.58
2022-12-01T15:06:05.414Z,959.22
2022-12-01T15:08:41.860Z,962.65
2022-12-01T15:11:21.575Z,953.95
2022-12-01T15:13:53.782Z,958.45
2022-12-01T15:16:29.274Z,957.57
2022-12-01T15:18:56.793Z,965.75
2022-12-01T15:21:29.722Z,964.42
2022-12-01T15:24:21.330Z,968.22
2022-12-01T15:26:51.268Z,966.83
2022-12-01T15:29:25.344Z,972.60
2022-12-01T15:32:00.560Z,967.63
2022-12-01T15:34:41.673Z,962.33
2022-12-01T15:37:19.350Z,961.35
2022-12-01T15:39:50.918Z,964.43
2022-12-01T15:42:27.974Z,960.70
2022-12-01T15:45:03.485Z,960.13
2022-12-01T15:47:46.423Z,962.30
2022-12-01T15:50:59.094Z,964.07
2022-12-01T15:53:32.672Z,970.92
2022-12-01T15:56:02.865Z,961.38
2022-12-01T15:58:32.941Z,965.40
2022-12-01T16:01:01.420Z,964.63
2022-12-01T16:03:28.618Z,963.28
2022-12-01T16:05:56.957Z,967.28
2022-12-01T16:08:27.369Z,973.38
2022-12-01T16:11:17.659Z,975.28
2022-12-01T16:13:47.154Z,968.03
2022-12-01T16:16:39.204Z,971.05
2022-12-01T16:19:09.100Z,974.67
2022-12-01T16:21:49.926Z,976.55
2022-12-01T16:24:29.264Z,973.00
2022-12-01T16:27:01.717Z,970.45
2022-12-01T16:29:34.200Z,976.00
2022-12-01T16:32:22.162Z,973.28
2022-12-01T16:34:51.339Z,976.20
2022-12-01T16:37:18.537Z,971.35
2022-12-01T16:39:45.558Z,973.58
2022-12-01T16:42:15.952Z,968.22
2022-12-01T16:44:45.503Z,974.85
2022-12-01T16:47:25.338Z,973.42
2022-12-01T16:49:52.936Z,974.60
2022-12-01T16:55:37.256Z,974.20
2022-12-01T16:58:04.475Z,979.85
2022-12-01T17:00:33.368Z,976.88
2022-12-01T17:03:00.815Z,976.37
2022-12-01T17:05:28.007Z,975.50
2022-12-01T17:07:54.965Z,976.00
2022-12-01T17:10:23.250Z,977.13
2022-12-01T17:12:50.428Z,981.13
2022-12-01T17:15:17.614Z,982.90
2022-12-01T17:17:44.566Z,977.08
2022-12-01T17:20:11.828Z,975.03
2022-12-01T17:22:38.562Z,972.85
2022-12-01T17:25:06.007Z,973.72
2022-12-01T17:27:34.168Z,975.30
2022-12-01T17:30:01.934Z,973.10
2022-12-01T17:32:28.866Z,975.15
2022-12-01T17:34:55.704Z,971.83
2022-12-01T17:37:22.427Z,969.10
2022-12-01T17:39:50.206Z,970.20
2022-12-01T17:42:17.349Z,972.13
2022-12-01T17:44:44.153Z,972.17
2022-12-01T17:47:11.540Z,972.10
2022-12-01T17:49:39.935Z,964.45
2022-12-01T17:52:08.113Z,965.85
2022-12-01T17:54:34.952Z,965.15
2022-12-01T17:57:01.815Z,970.80
2022-12-01T17:59:28.588Z,969.03
2022-12-01T18:01:55.527Z,971.73
2022-12-01T18:04:22.377Z,965.67
2022-12-01T18:06:53.807Z,968.97
2022-12-01T18:09:21.757Z,965.00
2022-12-01T18:11:49.755Z,966.70
2022-12-01T18:14:17.737Z,967.55
2022-12-01T18:16:44.952Z,966.60
2022-12-01T18:19:12.305Z,965.80
2022-12-01T18:21:40.290Z,940.22
2022-12-01T18:24:09.242Z,628.50
2022-12-01T18:26:38.035Z,279.58
2022-12-01T18:29:12.763Z,558.90
2022-12-01T18:31:40.350Z,343.10
2022-12-01T18:34:07.925Z,590.97
2022-12-01T18:36:36.721Z,67.35
2022-12-01T18:39:05.577Z,213.07
2022-12-01T18:41:32.381Z,290.67
2022-12-01T18:43:59.243Z,64.80
2022-12-01T18:46:26.289Z,11.93
2022-12-01T18:49:01.936Z,8.82
2022-12-01T18:51:30.628Z,9.43
2022-12-01T18:53:59.646Z,21.88
2022-12-01T18:56:27.039Z,19.25
2022-12-01T18:58:55.388Z,35.83
2022-12-01T19:01:27.070Z,28.63
2022-12-01T19:03:57.958Z,8.40
2022-12-01T19:06:26.029Z,8.73
2022-12-01T19:08:53.753Z,10.00
2022-12-01T19:11:21.284Z,12.60
2022-12-01T19:13:48.169Z,12.65
2022-12-01T19:16:17.747Z,14.38
2022-12-01T19:18:45.224Z,13.13
2022-12-01T19:21:15.459Z,12.27
2022-12-01T19:23:43.947Z,16.90
2022-12-01T19:26:14.461Z,16.25
2022-12-01T19:28:42.259Z,25.92
2022-12-01T19:31:12.430Z,10.38
2022-12-01T19:33:39.533Z,128.40
2022-12-01T19:36:08.557Z,147.10
2022-12-01T19:38:35.393Z,217.65
2022-12-01T19:41:03.822Z,240.30
2022-12-01T19:43:30.733Z,12.70
2022-12-01T19:45:58.089Z,356.80
2022-12-01T19:48:24.974Z,252.25
2022-12-01T19:50:51.777Z,231.52
2022-12-01T19:53:18.548Z,47.20
2022-12-01T19:55:45.391Z,54.25
2022-12-01T19:58:12.135Z,33.17
2022-12-01T20:00:40.516Z,70.22
2022-12-01T20:03:07.315Z,20.52
2022-12-01T20:05:34.032Z,59.22
2022-12-01T20:08:02.215Z,75.45
2022-12-01T20:10:30.111Z,30.70
2022-12-01T20:12:56.888Z,37.15
2022-12-01T20:15:23.708Z,24.63
2022-12-01T20:17:50.490Z,47.77
2022-12-01T20:20:17.673Z,56.65
2022-12-01T20:22:44.457Z,81.30
2022-12-01T20:25:11.468Z,102.28
2022-12-01T20:27:38.353Z,111.07
2022-12-01T20:30:05.696Z,201.05
2022-12-01T20:32:33.945Z,117.40
2022-12-01T20:35:01.800Z,139.25
2022-12-01T20:37:28.559Z,143.45
2022-12-01T20:39:55.698Z,42.22
2022-12-01T20:42:24.432Z,17.67
2022-12-01T20:44:52.380Z,18.23
2022-12-01T20:47:20.521Z,29.98
2022-12-01T20:49:47.338Z,37.28
2022-12-01T20:52:14.189Z,50.00
2022-12-01T20:54:42.385Z,44.53
2022-12-01T20:57:09.225Z,69.57
2022-12-01T20:59:36.815Z,106.50
2022-12-01T21:02:03.623Z,133.07
2022-12-01T21:04:30.468Z,87.70
2022-12-01T21:06:58.201Z,62.28
2022-12-01T21:09:26.083Z,77.27
2022-12-01T21:12:11.633Z,17.73
2022-12-01T21:14:42.837Z,19.13
2022-12-01T21:17:37.356Z,27.20
2022-12-01T21:20:35.934Z,38.88
2022-12-01T21:23:16.025Z,14.23
2022-12-01T21:25:43.359Z,11.35
2022-12-01T21:28:26.055Z,11.50
2022-12-01T21:31:02.200Z,10.93
2022-12-01T21:33:36.916Z,10.90
2022-12-01T21:36:19.423Z,21.60
2022-12-01T21:38:50.293Z,12.60
2022-12-01T21:41:25.966Z,11.55
2022-12-01T21:43:55.464Z,18.42
2022-12-01T21:46:22.349Z,11.43
2022-12-01T21:48:49.988Z,10.85
2022-12-01T21:51:20.515Z,11.85
2022-12-01T21:53:48.466Z,10.80
2022-12-01T21:56:23.675Z,11.68
2022-12-01T21:58:51.406Z,12.48
2022-12-01T22:01:30.108Z,13.40
2022-12-01T22:04:02.321Z,11.90
2022-12-01T22:06:37.797Z,10.82
2022-12-01T22:09:34.460Z,11.48
2022-12-01T22:12:10.058Z,11.50
2022-12-01T22:14:36.827Z,11.48
2022-12-01T22:17:06.568Z,12.43
2022-12-01T22:19:43.746Z,17.48
2022-12-01T22:22:15.666Z,15.23
2022-12-01T22:24:59.344Z,11.30
2022-12-01T22:27:41.142Z,14.50
2022-12-01T22:30:07.945Z,14.88
2022-12-01T22:32:36.099Z,22.02
2022-12-01T22:35:23.251Z,48.15
2022-12-01T22:37:53.230Z,12.93
2022-12-01T22:40:32.008Z,11.60
2022-12-01T22:43:27.752Z,12.00
2022-12-01T22:46:02.732Z,17.30
2022-12-01T22:48:49.981Z,21.10
2022-12-01T22:51:34.970Z,12.43
2022-12-01T22:54:17.356Z,11.05
2022-12-01T22:56:47.168Z,11.98
2022-12-01T22:59:35.091Z,12.03
2022-12-01T23:02:33.035Z,11.43
2022-12-01T23:05:12.593Z,11.67
2022-12-01T23:07:42.257Z,11.25
2022-12-01T23:10:22.919Z,11.60
2022-12-01T23:12:52.362Z,10.45
2022-12-01T23:15:34.643Z,10.32
2022-12-01T23:18:39.467Z,11.00
2022-12-01T23:21:07.378Z,58.42
2022-12-01T23:23:36.662Z,234.68
2022-12-01T23:26:06.620Z,179.10
2022-12-01T23:28:41.357Z,97.72
2022-12-01T23:31:09.389Z,140.35
2022-12-01T23:33:36.786Z,154.27
2022-12-01T23:36:17.989Z,300.15
2022-12-01T23:38:47.462Z,290.60
2022-12-01T23:41:25.300Z,318.77
2022-12-01T23:43:55.390Z,75.60
2022-12-01T23:46:26.934Z,11.15
2022-12-01T23:48:58.594Z,10.60
2022-12-01T23:51:31.708Z,13.43
2022-12-01T23:54:04.515Z,14.23
2022-12-01T23:56:32.351Z,118.47
2022-12-01T23:59:01.142Z,134.35
